Weather observations for the past three days for
Branson West Muni - Emerson Field
Imperial (Metric)
Date Time (cdt) Wind (mph) Vis. (mi.) Weather Sky Cond. Temperature (ºF) Relative Humidity Wind Chill (°F) Heat Index (°F) Pressure Precipitation (in)
Air Dwpt 6 hour altimeter (in) sea level (mb) 1 hr 3 hr 6 hr
Max. Min.
10 10:55 NE 12 8.00 NULL NULL 68 53.6 60% 30.04 0.0
10 10:35 Vrbl 6 G 14 9.00 NULL NULL 68 55.4 64% 30.03 0.0
10 10:15 NE 8 G 14 9.00 NULL NULL 66.2 55.4 68% 30.03 0.0
10 09:55 N 9 9.00 NULL NULL 66.2 57.2 73% 30.04 0.0
10 09:35 NE 6 8.00 NULL NULL 66.2 55.4 68% 30.04 0.0
10 09:15 N 9 8.00 NULL NULL 66.2 55.4 68% 30.04 0.0
10 08:55 N 6 9.00 NULL NULL 66.2 55.4 68% 30.04 0.0
10 08:35 Calm 9.00 NULL NULL 66.2 55.4 68% 30.02 0.0
10 08:15 N 6 8.00 NULL NULL 66.2 55.4 68% 30.01 0.0
10 07:55 N 5 8.00 NULL NULL 64.4 57.2 78% 30 0.0
10 07:35 Calm 8.00 NULL NULL 64.4 57.2 78% 29.99 0.0
10 07:15 Calm 9.00 NULL NULL 62.6 55.4 77% 29.98 0.0
10 06:55 Calm 9.00 NULL NULL 60.8 53.6 77% 29.98 0.0
10 06:35 Calm 9.00 NULL NULL 62.6 53.6 73% 29.97 0.0
10 06:15 Calm 9.00 NULL NULL 62.6 53.6 73% 29.97 0.0
10 05:55 Calm 9.00 NULL NULL 60.8 51.8 72% 29.96 0.0
10 05:35 Calm 9.00 NULL NULL 60.8 51.8 72% 29.97 0.0
10 05:15 Calm 10.00 NULL NULL 62.6 51.8 68% 29.96 0.0
10 04:55 Calm 9.00 NULL NULL 62.6 50 64% 29.95 0.0
10 04:35 Calm 9.00 NULL NULL 62.6 51.8 68% 29.94 0.0
10 04:15 N 5 10.00 NULL NULL 62.6 51.8 68% 29.93 0.0
10 03:55 NE 3 9.00 NULL NULL 62.6 50 64% 29.94 0.0
10 03:35 N 6 10.00 NULL NULL 62.6 50 64% 29.94 0.0
10 03:15 N 5 9.00 NULL NULL 62.6 50 64% 29.92 0.0
10 02:55 Calm 9.00 NULL NULL 64.4 48.2 56% 29.92 0.0
10 02:35 Calm 9.00 NULL NULL 64.4 48.2 56% 29.92 0.0
10 02:15 Calm 9.00 NULL NULL 64.4 46.4 52% 29.92 0.0
10 01:55 Calm 9.00 NULL NULL 64.4 46.4 52% 29.92 0.0
10 01:35 Calm 9.00 NULL NULL 62.6 46.4 56% 29.92 0.0
10 01:15 SW 3 9.00 NULL NULL 62.6 46.4 56% 29.93 0.0
10 00:55 Calm 10.00 NULL NULL 62.6 46.4 56% 29.93 0.0
10 00:35 Calm 9.00 NULL NULL 64.4 46.4 52% 29.92 0.0
10 00:15 Calm 9.00 NULL NULL 64.4 46.4 52% 29.92 0.0
09 23:55 Calm 9.00 NULL NULL 64.4 46.4 52% 29.92 0.0
09 23:35 Calm 9.00 NULL NULL 64.4 46.4 52% 29.92 0.0
09 23:15 Calm 10.00 NULL NULL 64.4 46.4 52% 29.92 0.0
09 22:55 Calm 9.00 NULL NULL 66.2 46.4 49% 29.91 0.0
09 22:35 Calm 9.00 NULL NULL 69.8 44.6 40% 29.9 0.0
09 22:15 Calm 9.00 NULL NULL 69.8 46.4 43% 29.89 0.0
09 21:55 Calm 10.00 NULL NULL 68 46.4 46% 29.89 0.0
09 21:35 Calm 9.00 NULL NULL 69.8 46.4 43% 29.87 0.0
09 21:15 Calm 10.00 NULL NULL 69.8 48.2 46% 29.86 0.0
09 20:55 Calm 9.00 NULL NULL 69.8 48.2 46% 29.85 0.0
09 20:35 Calm 9.00 NULL NULL 71.6 48.2 44% 29.84 0.0
09 20:15 Calm 9.00 NULL NULL 73.4 48.2 41% 29.83 0.0
09 19:55 Calm 9.00 NULL NULL 75.2 46.4 36% 77 29.83 0.0
09 19:35 Calm 8.00 Unknown Precip NULL 75.2 50 41% 78 29.83 0.0
09 19:15 Calm 9.00 Unknown Precip NULL 77 48.2 36% 78 29.82 0.0
09 18:55 Calm 9.00 Unknown Precip NULL 78.8 44.6 30% 79 29.82 0.0
09 18:35 Calm 9.00 Unknown Precip NULL 80.6 42.8 26% 79 29.82 0.0
09 18:15 Calm 8.00 Unknown Precip NULL 80.6 42.8 26% 79 29.83 0.0
09 17:55 NW 5 8.00 Unknown Precip NULL 82.4 39.2 21% 80 29.82 0.0
09 17:35 Calm 9.00 Unknown Precip NULL 82.4 41 23% 80 29.82 0.0
09 17:15 N 5 8.00 Unknown Precip NULL 82.4 39.2 21% 80 29.82 0.0
09 16:55 Vrbl 3 7.00 Unknown Precip NULL 82.4 39.2 21% 80 29.82 0.0
09 16:35 Calm 8.00 NULL NULL 80.6 39.2 23% 79 29.83 0.0
09 16:15 Calm 8.00 NULL NULL 80.6 39.2 23% 79 29.83 0.0
09 15:55 Calm 7.00 NULL NULL 78.8 41 26% 78 29.83 0.0
09 15:35 Calm 8.00 NULL NULL 80.6 39.2 23% 79 29.84 0.0
09 15:15 N 7 7.00 NULL NULL 82.4 39.2 21% 80 29.84 0.0
09 14:55 NW 6 G 13 8.00 NULL NULL 82.4 37.4 20% 80 29.85 0.0
09 14:35 Vrbl 7 7.00 NULL NULL 80.6 44.6 28% 79 29.85 0.0
09 14:15 Vrbl 5 7.00 NULL NULL 80.6 44.6 28% 79 29.86 0.0
09 13:55 Vrbl 7 9.00 NULL NULL 78.8 46.4 32% 79 29.86 0.0
09 13:35 Calm 8.00 NULL NULL 78.8 50 37% 79 29.86 0.0
09 13:15 Calm 8.00 NULL NULL 78.8 48.2 34% 79 29.86 0.0
09 12:55 Calm 8.00 NULL NULL 78.8 42.8 28% 78 29.86 0.0
09 12:35 Calm 8.00 NULL NULL 77 51.8 42% 78 29.87 0.0
09 12:15 Vrbl 3 9.00 NULL NULL 77 53.6 44% 78 29.87 0.0
09 11:55 Vrbl 5 8.00 NULL NULL 77 51.8 42% 78 29.88 0.0
09 11:35 W 5 8.00 NULL NULL 75.2 50 41% 78 29.88 0.0
09 11:15 Calm 8.00 NULL NULL 73.4 53.6 50% 29.88 0.0
09 10:55 SW 5 7.00 NULL NULL 73.4 53.6 50% 29.87 0.0
09 10:35 Vrbl 6 9.00 NULL NULL 71.6 55.4 57% 29.87 0.0
09 10:15 Calm 7.00 NULL NULL 69.8 55.4 60% 29.87 0.0
09 09:55 Calm 7.00 NULL NULL 68 57.2 69% 29.87 0.0
09 09:35 SW 5 8.00 NULL NULL 66.2 57.2 73% 29.87 0.0
09 09:15 SW 5 8.00 NULL NULL 64.4 57.2 78% 29.87 0.0
09 08:55 W 5 9.00 NULL NULL 62.6 55.4 77% 29.86 0.0
09 08:35 W 5 9.00 NULL NULL 60.8 55.4 83% 29.86 0.0
09 08:15 W 5 8.00 NULL NULL 59 55.4 88% 29.85 0.0
09 07:55 W 5 8.00 NULL NULL 57.2 55.4 94% 29.85 0.0
09 07:35 Calm 8.00 NULL NULL 57.2 55.4 94% 29.85 0.0
09 07:15 Calm 7.00 NULL NULL 53.6 53.6 100% 29.84 0.0
09 06:55 Calm 7.00 NULL NULL 53.6 53.6 100% 29.84 0.0
09 06:35 Calm 9.00 NULL NULL 51.8 51.8 100% 29.84 0.0
09 06:15 Calm 9.00 NULL NULL 55.4 51.8 88% 29.83 0.0
09 05:55 Calm 9.00 NULL NULL 55.4 53.6 94% 29.82 0.0
09 05:35 Calm 10.00 NULL NULL 55.4 51.8 88% 29.82 0.0
09 05:15 W 3 10.00 NULL NULL 55.4 51.8 88% 29.82 0.0
09 04:55 W 5 9.00 NULL NULL 57.2 51.8 82% 29.82 0.0
09 04:35 W 5 9.00 NULL NULL 55.4 51.8 88% 29.83 0.0
09 04:15 W 6 9.00 NULL NULL 55.4 51.8 88% 29.83 0.0
09 03:55 W 6 9.00 NULL NULL 55.4 51.8 88% 29.83 0.0
09 03:35 W 6 10.00 NULL NULL 57.2 51.8 82% 29.84 0.0
09 03:15 W 7 9.00 NULL NULL 57.2 51.8 82% 29.83 0.0
09 02:55 W 7 9.00 NULL NULL 57.2 51.8 82% 29.83 0.0
09 02:35 W 6 10.00 NULL NULL 57.2 51.8 82% 29.83 0.0
09 02:15 W 6 9.00 NULL NULL 55.4 51.8 88% 29.83 0.0
09 01:55 W 6 9.00 NULL NULL 57.2 51.8 82% 29.83 0.0
09 01:35 SW 5 9.00 NULL NULL 59 51.8 77% 29.83 0.0
09 01:15 W 5 9.00 NULL NULL 59 51.8 77% 29.83 0.0
09 00:55 Calm 9.00 NULL NULL 59 51.8 77% 29.83 0.0
09 00:35 Calm 9.00 NULL NULL 60.8 51.8 72% 29.84 0.0
09 00:15 SW 3 9.00 NULL NULL 60.8 50 68% 29.84 0.0
08 23:55 Calm 9.00 NULL NULL 62.6 50 64% 29.85 0.0
08 23:35 Calm 10.00 NULL NULL 64.4 50 60% 29.84 0.0
08 23:15 NW 5 9.00 NULL NULL 64.4 50 60% 29.84 0.0
08 22:55 NW 6 9.00 NULL NULL 66.2 48.2 52% 29.83 0.0
08 22:35 NW 8 9.00 NULL NULL 68 46.4 46% 29.82 0.0
08 22:15 W 10 G 18 9.00 NULL NULL 68 46.4 46% 29.8 0.0
08 21:55 W 9 9.00 NULL NULL 66.2 48.2 52% 29.79 0.0
08 21:35 SW 14 9.00 NULL NULL 68 48.2 49% 29.78 0.0
08 21:15 SW 10 G 17 9.00 NULL NULL 68 50 53% 29.77 0.0
08 20:55 SW 8 G 20 9.00 NULL NULL 68 50 53% 29.76 0.0
08 20:35 SW 13 9.00 NULL NULL 69.8 50 50% 29.76 0.0
08 20:15 SW 12 G 22 7.00 Light Rain NULL 69.8 50 50% 29.76 0.0
08 19:55 SW 10 G 16 8.00 NULL NULL 71.6 48.2 44% 29.77 0.0
08 19:35 Vrbl 7 8.00 NULL NULL 71.6 48.2 44% 29.76 0.0
08 19:15 Calm 9.00 NULL NULL 69.8 48.2 46% 29.74 0.0
08 18:55 Calm 8.00 NULL NULL 71.6 46.4 41% 29.76 0.0
08 18:35 W 6 8.00 NULL NULL 73.4 46.4 38% 29.78 0.0
08 18:15 W 7 9.00 NULL NULL 73.4 46.4 38% 29.78 0.0
08 17:55 W 9 G 16 9.00 NULL NULL 75.2 42.8 31% 77 29.78 0.0
08 17:35 SW 9 8.00 NULL NULL 75.2 44.6 34% 77 29.77 0.0
08 17:15 SW 12 G 17 9.00 NULL NULL 77 44.6 32% 78 29.76 0.0
08 16:55 Vrbl 5 G 12 7.00 NULL NULL 77 44.6 32% 78 29.76 0.0
08 16:35 Vrbl 6 G 13 8.00 NULL NULL 77 44.6 32% 78 29.77 0.0
08 16:15 Vrbl 5 G 14 8.00 NULL NULL 77 46.4 34% 78 29.77 0.0
08 15:55 SW 8 G 14 9.00 NULL NULL 77 46.4 34% 78 29.78 0.0
08 15:35 Vrbl 7 8.00 NULL NULL 77 46.4 34% 78 29.8 0.0
08 15:15 S 7 9.00 NULL NULL 77 44.6 32% 78 29.8 0.0
08 14:55 SW 9 G 16 9.00 NULL NULL 75.2 42.8 31% 77 29.81 0.0
08 14:35 SW 9 9.00 NULL NULL 75.2 42.8 31% 77 29.82 0.0
08 14:15 SW 9 7.00 NULL NULL 73.4 44.6 36% 29.83 0.0
08 13:55 SW 8 G 14 8.00 NULL NULL 75.2 48.2 39% 77 29.84 0.0
08 13:35 SW 9 8.00 NULL NULL 75.2 48.2 39% 77 29.85 0.0
08 13:15 W 5 G 17 8.00 NULL NULL 73.4 48.2 41% 29.86 0.0
08 12:55 SW 8 G 15 7.00 NULL NULL 73.4 48.2 41% 29.87 0.0
08 12:35 Vrbl 7 G 13 8.00 NULL NULL 71.6 48.2 44% 29.88 0.0
08 12:15 SW 9 8.00 NULL NULL 71.6 48.2 44% 29.89 0.0
08 11:55 SW 12 9.00 NULL NULL 69.8 48.2 46% 29.9 0.0
08 11:35 Vrbl 6 G 16 9.00 NULL NULL 69.8 48.2 46% 29.9 0.0
08 11:15 SW 8 G 16 8.00 NULL NULL 68 50 53% 29.91 0.0
08 10:55 W 8 9.00 NULL NULL 68 50 53% 29.92 0.0
08 10:35 W 10 9.00 NULL NULL 66.2 50 56% 29.93 0.0
08 10:15 Vrbl 6 9.00 NULL NULL 64.4 50 60% 29.94 0.0
08 09:55 SW 9 9.00 NULL NULL 62.6 50 64% 29.94 0.0
08 09:35 SW 8 9.00 NULL NULL 62.6 48.2 60% 29.94 0.0
08 09:15 SW 8 G 16 9.00 NULL NULL 60.8 48.2 63% 29.94 0.0
08 08:55 SW 8 2.00 Haze NULL 59 48.2 68% 29.95 0.0
08 08:35 W 5 2.50 Haze NULL 57.2 46.4 67% 29.95 0.0
08 08:15 SW 3 2.50 Haze NULL 55.4 46.4 72% 29.95 0.0
08 07:55 SW 5 2.00 Haze NULL 53.6 46.4 77% 29.95 0.0
08 07:35 SW 5 8.00 NULL NULL 51.8 46.4 82% 29.94 0.0
08 07:15 Calm 7.00 NULL NULL 51.8 46.4 82% 29.94 0.0
08 06:55 Calm 8.00 NULL NULL 50 46.4 88% 29.94 0.0
08 06:35 Calm 9.00 NULL NULL 46.4 46.4 100% 29.94 0.0
08 06:15 Calm 8.00 NULL NULL 46.4 44.6 93% 29.93 0.0
08 05:55 Calm 9.00 NULL NULL 48.2 44.6 87% 29.93 0.0
08 05:35 Calm 9.00 NULL NULL 48.2 44.6 87% 29.93 0.0
08 05:15 Calm 10.00 NULL NULL 50 44.6 82% 29.92 0.0
08 04:55 Calm 9.00 NULL NULL 50 44.6 82% 29.92 0.0
08 04:35 Calm 9.00 NULL NULL 50 44.6 82% 29.92 0.0
08 04:15 Calm 9.00 NULL NULL 50 44.6 82% 29.92 0.0
08 03:55 Calm 9.00 NULL NULL 50 44.6 82% 29.92 0.0
08 03:35 Calm 9.00 NULL NULL 50 44.6 82% 29.93 0.0
08 03:15 Calm 8.00 NULL NULL 48.2 44.6 87% 29.93 0.0
08 02:55 Calm 9.00 NULL NULL 50 46.4 88% 29.94 0.0
08 02:35 Calm 10.00 NULL NULL 50 44.6 82% 29.94 0.0
08 02:15 Calm 10.00 NULL NULL 53.6 44.6 72% 29.95 0.0
08 01:55 Calm 9.00 NULL NULL 51.8 44.6 77% 29.95 0.0
08 01:35 Vrbl 3 9.00 NULL NULL 53.6 44.6 72% 29.95 0.0
08 01:15 Calm 9.00 NULL NULL 51.8 44.6 77% 29.96 0.0
08 00:55 Calm 10.00 NULL NULL 53.6 44.6 72% 29.97 0.0
08 00:35 Calm 10.00 NULL NULL 53.6 44.6 72% 29.96 0.0
08 00:15 Calm 9.00 NULL NULL 53.6 44.6 72% 29.97 0.0
07 23:55 Calm 9.00 NULL NULL 53.6 42.8 67% 29.97 0.0
07 23:35 Calm 10.00 NULL NULL 51.8 42.8 72% 29.97 0.0
07 23:15 Calm 9.00 NULL NULL 51.8 42.8 72% 29.98 0.0
07 22:55 Calm 9.00 NULL NULL 53.6 42.8 67% 29.98 0.0
07 22:35 Calm 9.00 NULL NULL 53.6 41 63% 29.98 0.0
07 22:15 Calm 9.00 NULL NULL 55.4 41 59% 29.98 0.0
07 21:55 Calm 9.00 NULL NULL 57.2 41 55% 29.97 0.0
07 21:35 Calm 9.00 NULL NULL 57.2 41 55% 29.97 0.0
07 21:15 Calm 9.00 NULL NULL 59 39.2 48% 29.96 0.0
07 20:55 Calm 9.00 NULL NULL 59 39.2 48% 29.95 0.0
07 20:35 Vrbl 3 9.00 NULL NULL 59 39.2 48% 29.94 0.0
07 20:15 Calm 9.00 NULL NULL 60.8 39.2 45% 29.94 0.0
07 19:55 S 3 8.00 NULL NULL 62.6 39.2 42% 29.94 0.0
07 19:35 SW 5 9.00 NULL NULL 62.6 37.4 39% 29.94 0.0
07 19:15 SW 7 9.00 NULL NULL 64.4 39.2 40% 29.94 0.0
07 18:55 SW 6 8.00 NULL NULL 66.2 37.4 35% 29.94 0.0
07 18:35 SW 8 8.00 NULL NULL 66.2 37.4 35% 29.94 0.0
07 18:15 Vrbl 6 8.00 NULL NULL 66.2 37.4 35% 29.94 0.0
07 17:55 Calm 9.00 NULL NULL 66.2 37.4 35% 29.95 0.0
07 17:35 Vrbl 6 G 13 9.00 NULL NULL 68 37.4 33% 29.95 0.0
07 17:15 Vrbl 6 G 14 8.00 NULL NULL 68 35.6 30% 29.96 0.0
07 16:55 Vrbl 6 G 13 8.00 NULL NULL 68 37.4 33% 29.96 0.0
07 16:35 Vrbl 5 G 17 9.00 NULL NULL 66.2 35.6 32% 29.96 0.0
07 16:15 Vrbl 5 8.00 NULL NULL 66.2 35.6 32% 29.97 0.0
07 15:15 Calm 8.00 NULL NULL 64.4 35.6 34% 29.99 0.0
07 14:55 Vrbl 5 9.00 NULL NULL 66.2 35.6 32% 30 0.0
07 14:35 W 9 9.00 NULL NULL 66.2 35.6 32% 30.01 0.0
07 14:15 W 8 G 20 9.00 NULL NULL 64.4 33.8 32% 30.01 0.0
07 13:55 Vrbl 3 G 15 9.00 NULL NULL 64.4 32 30% 30.02 0.0
07 13:35 Vrbl 7 G 14 9.00 NULL NULL 64.4 33.8 32% 30.02 0.0
07 13:15 Vrbl 7 9.00 NULL NULL 62.6 32 32% 30.03 0.0
07 12:55 Vrbl 7 9.00 NULL NULL 62.6 32 32% 30.04 0.0
07 12:35 W 7 G 14 8.00 NULL NULL 62.6 30.2 30% 30.06 0.0
07 12:15 SW 8 9.00 NULL NULL 60.8 32 34% 30.06 0.0
07 11:55 SW 5 8.00 NULL NULL 60.8 30.2 31% 30.07 0.0
07 11:35 Vrbl 6 G 13 8.00 NULL NULL 60.8 30.2 31% 30.07 0.0
07 11:15 Vrbl 3 8.00 NULL NULL 60.8 35.6 39% 30.08 0.0
Date Time (cdt) Wind (mph) Vis. (mi.) Weather Sky Cond. Air Dwpt Max. Min. Relative Humidity Wind Chill (°F) Heat Index (°F) altimeter (in) sea level (mb) 1 hr 3 hr 6 hr
6 hour
Temperature (ºF) Pressure Precipitation (in)